createdAt,value
2023-06-11T00:01:31.072Z,18.20
2023-06-11T00:03:58.908Z,18.20
2023-06-11T00:06:26.196Z,18.20
2023-06-11T00:08:55.537Z,18.30
2023-06-11T00:11:23.645Z,18.30
2023-06-11T00:13:51.623Z,18.30
2023-06-11T00:16:19.024Z,18.30
2023-06-11T00:18:46.692Z,18.30
2023-06-11T00:21:15.397Z,18.40
2023-06-11T00:23:42.795Z,18.40
2023-06-11T00:26:11.269Z,18.50
2023-06-11T00:28:41.586Z,18.50
2023-06-11T00:31:09.425Z,18.60
2023-06-11T00:33:36.673Z,18.60
2023-06-11T00:36:04.230Z,18.60
2023-06-11T00:38:31.606Z,18.70
2023-06-11T00:40:59.704Z,18.70
2023-06-11T00:43:27.832Z,18.70
2023-06-11T00:45:55.754Z,18.70
2023-06-11T00:48:23.498Z,18.80
2023-06-11T00:50:52.639Z,18.80
2023-06-11T00:53:23.143Z,18.80
2023-06-11T00:55:50.878Z,18.80
2023-06-11T00:58:19.301Z,18.80
2023-06-11T01:00:54.536Z,18.70
2023-06-11T01:03:28.407Z,18.70
2023-06-11T01:06:03.783Z,18.70
2023-06-11T01:08:36.279Z,18.70
2023-06-11T01:11:04.027Z,18.70
2023-06-11T01:13:34.688Z,18.70
2023-06-11T01:16:13.633Z,18.70
2023-06-11T01:19:13.466Z,18.70
2023-06-11T01:21:51.750Z,18.70
2023-06-11T01:24:41.346Z,18.70
2023-06-11T01:27:22.932Z,18.70
2023-06-11T01:29:52.148Z,18.70
2023-06-11T01:32:25.077Z,18.70
2023-06-11T01:35:04.845Z,18.70
2023-06-11T01:37:46.640Z,18.60
2023-06-11T01:40:17.187Z,18.60
2023-06-11T01:42:52.090Z,18.60
2023-06-11T01:45:20.136Z,18.50
2023-06-11T01:47:47.341Z,18.50
2023-06-11T01:50:15.585Z,18.50
2023-06-11T01:52:42.930Z,18.50
2023-06-11T01:55:11.430Z,18.40
2023-06-11T01:57:40.003Z,18.40
2023-06-11T02:00:11.488Z,18.40
2023-06-11T02:02:48.731Z,18.40
2023-06-11T02:05:19.068Z,18.30
2023-06-11T02:07:46.953Z,18.30
2023-06-11T02:10:14.492Z,18.20
2023-06-11T02:12:41.853Z,18.20
2023-06-11T02:15:10.001Z,18.20
2023-06-11T02:17:37.725Z,18.20
2023-06-11T02:20:09.272Z,18.20
2023-06-11T02:22:36.497Z,18.10
2023-06-11T02:25:04.199Z,18.10
2023-06-11T02:27:33.498Z,18.10
2023-06-11T02:30:03.468Z,18.00
2023-06-11T02:32:32.064Z,18.00
2023-06-11T02:34:59.537Z,18.00
2023-06-11T02:37:28.108Z,18.00
2023-06-11T02:39:55.572Z,17.90
2023-06-11T02:42:23.028Z,17.90
2023-06-11T02:44:50.389Z,17.80
2023-06-11T02:47:17.694Z,17.80
2023-06-11T02:49:46.108Z,17.80
2023-06-11T02:52:13.513Z,17.80
2023-06-11T02:54:41.272Z,17.70
2023-06-11T02:57:08.652Z,17.60
2023-06-11T02:59:36.076Z,17.60
2023-06-11T03:02:03.600Z,17.50
2023-06-11T03:04:31.177Z,17.50
2023-06-11T03:06:58.416Z,17.40
2023-06-11T03:09:25.642Z,17.40
2023-06-11T03:11:53.482Z,17.30
2023-06-11T03:14:22.299Z,17.30
2023-06-11T03:16:49.596Z,17.20
2023-06-11T03:19:16.920Z,17.20
2023-06-11T03:21:44.861Z,17.10
2023-06-11T03:24:13.646Z,17.10
2023-06-11T03:26:40.951Z,17.10
2023-06-11T03:29:08.258Z,17.00
2023-06-11T03:31:44.972Z,17.00
2023-06-11T03:34:12.358Z,16.90
2023-06-11T03:36:40.133Z,16.90
2023-06-11T03:39:11.387Z,16.90
2023-06-11T03:41:38.613Z,16.90
2023-06-11T03:44:06.797Z,16.80
2023-06-11T03:46:34.614Z,16.80
2023-06-11T03:49:03.005Z,16.90
2023-06-11T03:51:30.800Z,16.80
2023-06-11T03:53:58.038Z,16.80
2023-06-11T03:56:25.942Z,16.90
2023-06-11T03:58:53.318Z,16.90
2023-06-11T04:01:21.738Z,16.80
2023-06-11T04:03:49.043Z,16.80
2023-06-11T04:06:17.462Z,16.90
2023-06-11T04:08:44.745Z,16.90
2023-06-11T04:11:12.829Z,17.00
2023-06-11T04:13:41.705Z,17.00
2023-06-11T04:16:09.570Z,17.00
2023-06-11T04:18:37.096Z,17.00
2023-06-11T04:21:04.584Z,17.00
2023-06-11T04:23:33.947Z,17.10
2023-06-11T04:26:03.104Z,17.10
2023-06-11T04:28:31.290Z,17.10
2023-06-11T04:30:59.498Z,17.20
2023-06-11T04:33:37.772Z,17.20
2023-06-11T04:36:09.156Z,17.20
2023-06-11T04:38:38.786Z,17.20
2023-06-11T04:41:07.738Z,17.30
2023-06-11T04:43:35.866Z,17.30
2023-06-11T04:46:05.220Z,17.30
2023-06-11T04:48:34.108Z,17.40
2023-06-11T04:51:02.585Z,17.50
2023-06-11T04:53:38.303Z,17.50
2023-06-11T04:56:06.946Z,17.60
2023-06-11T04:58:37.955Z,17.60
2023-06-11T05:01:06.368Z,17.70
2023-06-11T05:03:38.315Z,17.70
2023-06-11T05:06:09.725Z,17.80
2023-06-11T05:08:40.742Z,17.80
2023-06-11T05:11:08.303Z,17.90
2023-06-11T05:13:38.283Z,18.00
2023-06-11T05:16:07.106Z,18.00
2023-06-11T05:18:35.818Z,18.00
2023-06-11T05:21:06.510Z,18.10
2023-06-11T05:23:34.613Z,18.20
2023-06-11T05:26:13.258Z,18.30
2023-06-11T05:28:44.612Z,18.30
2023-06-11T05:31:14.206Z,18.40
2023-06-11T05:33:45.649Z,18.50
2023-06-11T05:36:12.918Z,18.60
2023-06-11T05:38:40.827Z,18.60
2023-06-11T05:41:08.644Z,18.70
2023-06-11T05:43:36.785Z,18.80
2023-06-11T05:46:04.499Z,18.80
2023-06-11T05:48:33.050Z,18.90
2023-06-11T05:51:00.741Z,19.00
2023-06-11T05:53:28.384Z,19.10
2023-06-11T05:55:57.346Z,19.30
2023-06-11T05:58:25.221Z,19.40
2023-06-11T06:00:52.935Z,19.50
2023-06-11T06:03:20.973Z,19.70
2023-06-11T06:05:48.518Z,19.80
2023-06-11T06:08:15.826Z,19.90
2023-06-11T06:10:44.382Z,20.20
2023-06-11T06:13:11.680Z,20.30
2023-06-11T06:15:39.621Z,20.40
2023-06-11T06:18:07.132Z,20.60
2023-06-11T06:20:41.653Z,20.90
2023-06-11T06:23:09.627Z,21.10
2023-06-11T06:25:39.498Z,21.30
2023-06-11T06:28:10.012Z,21.40
2023-06-11T06:30:40.050Z,21.60
2023-06-11T06:33:08.594Z,21.70
2023-06-11T06:35:36.427Z,21.80
2023-06-11T06:38:05.160Z,22.00
2023-06-11T06:40:34.161Z,22.00
2023-06-11T06:43:01.502Z,22.20
2023-06-11T06:45:34.912Z,22.40
2023-06-11T06:48:11.044Z,22.50
2023-06-11T06:50:38.704Z,22.60
2023-06-11T06:53:06.149Z,22.70
2023-06-11T06:55:33.304Z,22.90
2023-06-11T06:58:05.265Z,23.00
2023-06-11T07:00:33.343Z,23.10
2023-06-11T07:03:00.864Z,23.30
2023-06-11T07:05:28.900Z,23.40
2023-06-11T07:07:56.472Z,23.50
2023-06-11T07:10:24.144Z,23.70
2023-06-11T07:12:53.258Z,23.70
2023-06-11T07:15:20.408Z,23.90
2023-06-11T07:17:48.258Z,24.10
2023-06-11T07:20:17.473Z,24.20
2023-06-11T07:22:45.445Z,24.20
2023-06-11T07:25:13.471Z,24.40
2023-06-11T07:27:40.781Z,24.30
2023-06-11T07:30:10.110Z,24.50
2023-06-11T07:32:38.288Z,24.60
2023-06-11T07:35:06.418Z,24.80
2023-06-11T07:37:33.735Z,24.80
2023-06-11T07:40:01.265Z,25.00
2023-06-11T07:42:28.561Z,25.10
2023-06-11T07:44:56.099Z,25.30
2023-06-11T07:47:23.810Z,25.30
2023-06-11T07:49:51.287Z,25.40
2023-06-11T07:52:18.955Z,25.40
2023-06-11T07:54:47.143Z,25.40
2023-06-11T07:57:14.360Z,25.60
2023-06-11T07:59:44.568Z,25.80
2023-06-11T08:02:12.695Z,25.90
2023-06-11T08:04:40.170Z,26.00
2023-06-11T08:07:08.069Z,25.90
2023-06-11T08:09:36.903Z,26.00
2023-06-11T08:12:09.474Z,26.10
2023-06-11T08:14:37.495Z,26.20
2023-06-11T08:17:05.159Z,26.30
2023-06-11T08:19:32.419Z,26.50
2023-06-11T08:22:02.704Z,26.30
2023-06-11T08:24:32.084Z,26.50
2023-06-11T08:26:59.683Z,26.60
2023-06-11T08:29:27.046Z,26.60
2023-06-11T08:31:54.613Z,26.80
2023-06-11T08:34:22.036Z,26.80
2023-06-11T08:36:49.379Z,27.00
2023-06-11T08:39:17.220Z,27.00
2023-06-11T08:41:44.723Z,27.10
2023-06-11T08:44:12.024Z,27.30
2023-06-11T08:46:40.348Z,27.50
2023-06-11T08:49:09.045Z,27.60
2023-06-11T08:51:38.807Z,27.70
2023-06-11T08:54:08.286Z,27.70
2023-06-11T08:56:36.261Z,27.70
2023-06-11T08:59:04.555Z,27.80
2023-06-11T09:01:32.766Z,27.90
2023-06-11T09:04:01.381Z,28.00
2023-06-11T09:06:29.458Z,28.00
2023-06-11T09:09:09.430Z,28.20
2023-06-11T09:11:38.704Z,28.30
2023-06-11T09:14:07.426Z,28.20
2023-06-11T09:16:46.557Z,28.30
2023-06-11T09:19:17.559Z,28.60
2023-06-11T09:21:52.264Z,28.60
2023-06-11T09:24:21.329Z,28.60
2023-06-11T09:26:57.621Z,28.80
2023-06-11T09:29:27.669Z,28.80
2023-06-11T09:32:09.914Z,28.90
2023-06-11T09:34:43.645Z,29.00
2023-06-11T09:37:12.514Z,28.90
2023-06-11T09:39:43.220Z,28.90
2023-06-11T09:42:29.038Z,29.00
2023-06-11T09:45:00.530Z,29.10
2023-06-11T09:47:32.787Z,29.10
2023-06-11T09:50:00.552Z,29.40
2023-06-11T09:52:29.396Z,29.50
2023-06-11T09:54:57.867Z,29.40
2023-06-11T09:57:25.731Z,29.50
2023-06-11T09:59:53.567Z,29.70
2023-06-11T10:02:21.091Z,29.80
2023-06-11T10:04:48.859Z,29.90
2023-06-11T10:07:18.067Z,30.10
2023-06-11T10:09:47.225Z,30.10
2023-06-11T10:12:17.417Z,30.10
2023-06-11T10:14:54.306Z,30.30
2023-06-11T10:17:23.604Z,30.40
2023-06-11T10:19:52.984Z,30.30
2023-06-11T10:22:35.472Z,30.50
2023-06-11T10:25:04.776Z,30.40
2023-06-11T10:27:42.804Z,30.40
2023-06-11T10:30:10.967Z,30.50
2023-06-11T10:32:50.941Z,30.40
2023-06-11T10:35:26.735Z,30.50
2023-06-11T10:38:05.304Z,30.40
2023-06-11T10:40:42.375Z,30.50
2023-06-11T10:43:22.744Z,30.70
2023-06-11T10:46:04.443Z,30.60
2023-06-11T10:48:32.318Z,30.80
2023-06-11T10:51:09.211Z,31.00
2023-06-11T10:53:42.125Z,30.90
2023-06-11T10:56:13.481Z,30.80
2023-06-11T10:58:41.950Z,31.00
2023-06-11T11:01:09.748Z,31.10
2023-06-11T11:03:40.733Z,30.90
2023-06-11T11:06:09.922Z,31.20
2023-06-11T11:08:37.158Z,31.30
2023-06-11T11:11:06.182Z,31.50
2023-06-11T11:13:34.934Z,31.50
2023-06-11T11:16:03.857Z,31.40
2023-06-11T11:18:31.153Z,31.50
2023-06-11T11:20:58.448Z,31.60
2023-06-11T11:23:25.791Z,31.50
2023-06-11T11:25:53.451Z,31.50
2023-06-11T11:28:21.631Z,31.60
2023-06-11T11:30:52.405Z,31.50
2023-06-11T11:33:19.778Z,31.70
2023-06-11T11:35:51.660Z,31.60
2023-06-11T11:38:18.916Z,31.70
2023-06-11T11:40:46.200Z,31.80
2023-06-11T11:43:14.611Z,31.80
2023-06-11T11:45:48.274Z,32.10
2023-06-11T11:48:17.052Z,32.20
2023-06-11T11:50:46.452Z,32.40
2023-06-11T11:53:16.482Z,32.60
2023-06-11T11:56:00.277Z,32.70
2023-06-11T11:58:42.324Z,32.80
2023-06-11T12:01:23.291Z,32.90
2023-06-11T12:04:06.449Z,32.90
2023-06-11T12:06:33.876Z,32.40
2023-06-11T12:09:01.241Z,32.50
2023-06-11T12:11:28.723Z,32.60
2023-06-11T12:13:56.893Z,32.40
2023-06-11T12:16:24.789Z,32.50
2023-06-11T12:18:54.523Z,32.50
2023-06-11T12:21:28.181Z,32.00
2023-06-11T12:23:57.518Z,31.50
2023-06-11T12:26:24.817Z,31.70
2023-06-11T12:28:51.998Z,31.90
2023-06-11T12:31:19.288Z,32.10
2023-06-11T12:33:46.696Z,32.30
2023-06-11T12:36:13.939Z,32.00
2023-06-11T12:38:41.525Z,31.90
2023-06-11T12:41:09.071Z,31.90
2023-06-11T12:43:36.253Z,31.90
2023-06-11T12:46:03.836Z,32.00
2023-06-11T12:48:31.169Z,32.10
2023-06-11T12:50:58.521Z,32.20
2023-06-11T12:53:25.734Z,32.40
2023-06-11T12:55:53.132Z,32.30
2023-06-11T12:58:20.902Z,32.20
2023-06-11T13:00:47.970Z,32.20
2023-06-11T13:03:15.408Z,31.60
2023-06-11T13:05:42.688Z,31.40
2023-06-11T13:08:11.542Z,31.60
2023-06-11T13:10:41.526Z,31.90
2023-06-11T13:13:08.882Z,32.30
2023-06-11T13:15:36.386Z,32.50
2023-06-11T13:18:04.679Z,32.70
2023-06-11T13:20:32.244Z,33.00
2023-06-11T13:22:59.577Z,33.10
2023-06-11T13:25:26.872Z,33.20
2023-06-11T13:27:54.049Z,33.00
2023-06-11T13:30:21.494Z,32.30
2023-06-11T13:32:49.172Z,32.40
2023-06-11T13:35:16.611Z,32.70
2023-06-11T13:37:44.199Z,33.00
2023-06-11T13:40:11.979Z,33.00
2023-06-11T13:42:39.597Z,33.20
2023-06-11T13:45:07.355Z,33.30
2023-06-11T13:47:34.664Z,33.40
2023-06-11T13:50:02.050Z,32.90
2023-06-11T13:52:29.624Z,32.70
2023-06-11T13:54:56.785Z,32.60
2023-06-11T13:57:28.830Z,32.70
2023-06-11T13:59:56.446Z,32.70
2023-06-11T14:02:23.942Z,32.80
2023-06-11T14:04:53.446Z,33.10
2023-06-11T14:07:21.178Z,33.10
2023-06-11T14:09:48.850Z,33.00
2023-06-11T14:12:16.137Z,32.90
2023-06-11T14:14:45.679Z,33.00
2023-06-11T14:17:12.943Z,33.00
2023-06-11T14:19:40.535Z,32.50
2023-06-11T14:22:07.942Z,32.70
2023-06-11T14:24:35.202Z,32.90
2023-06-11T14:27:02.543Z,32.90
2023-06-11T14:29:29.744Z,33.10
2023-06-11T14:32:01.641Z,33.20
2023-06-11T14:34:29.137Z,33.20
2023-06-11T14:36:56.566Z,33.40
2023-06-11T14:39:25.509Z,33.50
2023-06-11T14:41:52.844Z,33.60
2023-06-11T14:44:20.124Z,33.30
2023-06-11T14:46:47.599Z,32.70
2023-06-11T14:49:20.905Z,32.30
2023-06-11T14:51:49.154Z,32.20
2023-06-11T14:54:16.633Z,32.20
2023-06-11T14:56:44.198Z,32.50
2023-06-11T14:59:12.437Z,32.60
2023-06-11T15:01:42.469Z,32.70
2023-06-11T15:04:12.505Z,32.80
2023-06-11T15:06:42.038Z,32.80
2023-06-11T15:09:10.229Z,32.70
2023-06-11T15:11:37.462Z,32.80
2023-06-11T15:14:06.027Z,32.90
2023-06-11T15:16:33.284Z,32.90
2023-06-11T15:19:00.889Z,33.00
2023-06-11T15:21:28.117Z,33.10
2023-06-11T15:23:55.447Z,33.20
2023-06-11T15:26:22.840Z,33.10
2023-06-11T15:28:50.147Z,33.20
2023-06-11T15:31:17.609Z,33.10
2023-06-11T15:33:44.947Z,32.90
2023-06-11T15:36:12.191Z,32.90
2023-06-11T15:38:39.404Z,32.80
2023-06-11T15:41:06.811Z,32.80
2023-06-11T15:43:34.117Z,32.70
2023-06-11T15:46:01.901Z,32.80
2023-06-11T15:48:29.297Z,32.70
2023-06-11T15:50:56.715Z,32.60
2023-06-11T15:53:23.944Z,32.70
2023-06-11T15:55:51.171Z,32.70
2023-06-11T15:58:18.431Z,32.90
2023-06-11T16:00:45.869Z,32.50
2023-06-11T16:03:15.291Z,32.00
2023-06-11T16:05:42.818Z,31.50
2023-06-11T16:08:10.101Z,31.20
2023-06-11T16:10:37.354Z,31.00
2023-06-11T16:13:04.510Z,31.10
2023-06-11T16:15:31.800Z,31.20
2023-06-11T16:17:58.975Z,31.30
2023-06-11T16:20:27.754Z,31.40
2023-06-11T16:22:54.983Z,31.40
2023-06-11T16:25:22.277Z,31.60
2023-06-11T16:27:49.695Z,31.50
2023-06-11T16:30:16.983Z,31.50
2023-06-11T16:32:44.754Z,31.50
2023-06-11T16:35:12.855Z,31.40
2023-06-11T16:37:41.437Z,31.50
2023-06-11T16:40:09.262Z,31.50
2023-06-11T16:42:36.493Z,31.40
2023-06-11T16:45:04.122Z,31.40
2023-06-11T16:47:31.584Z,31.30
2023-06-11T16:49:59.892Z,31.30
2023-06-11T16:52:29.107Z,31.10
2023-06-11T16:55:02.029Z,30.90
2023-06-11T16:57:29.781Z,30.80
2023-06-11T17:00:02.273Z,30.70
2023-06-11T17:02:32.989Z,30.50
2023-06-11T17:05:00.574Z,30.40
2023-06-11T17:07:27.980Z,30.20
2023-06-11T17:09:55.366Z,30.20
2023-06-11T17:12:22.772Z,30.20
2023-06-11T17:14:52.647Z,30.00
2023-06-11T17:17:21.571Z,30.00
2023-06-11T17:19:48.874Z,29.90
2023-06-11T17:22:16.393Z,29.80
2023-06-11T17:24:43.608Z,29.70
2023-06-11T17:27:12.378Z,29.60
2023-06-11T17:29:39.662Z,29.60
2023-06-11T17:32:07.593Z,29.50
2023-06-11T17:34:35.813Z,29.50
2023-06-11T17:37:04.165Z,29.50
2023-06-11T17:39:31.378Z,29.40
2023-06-11T17:41:58.722Z,29.30
2023-06-11T17:44:26.071Z,29.20
2023-06-11T17:46:53.701Z,29.20
2023-06-11T17:49:21.013Z,29.10
2023-06-11T17:51:49.633Z,29.00
2023-06-11T17:54:17.023Z,28.90
2023-06-11T17:56:45.464Z,28.90
2023-06-11T17:59:12.853Z,28.80
2023-06-11T18:01:40.362Z,28.80
2023-06-11T18:04:07.765Z,28.70
2023-06-11T18:06:35.169Z,28.60
2023-06-11T18:09:02.538Z,28.50
2023-06-11T18:11:30.629Z,28.40
2023-06-11T18:13:57.860Z,28.30
2023-06-11T18:16:25.103Z,28.20
2023-06-11T18:18:53.584Z,28.20
2023-06-11T18:21:20.996Z,28.10
2023-06-11T18:23:48.269Z,28.00
2023-06-11T18:26:15.782Z,27.90
2023-06-11T18:28:43.035Z,27.80
2023-06-11T18:31:10.494Z,27.70
2023-06-11T18:33:37.779Z,27.60
2023-06-11T18:36:05.456Z,27.50
2023-06-11T18:38:32.794Z,27.50
2023-06-11T18:41:00.147Z,27.40
2023-06-11T18:43:27.444Z,27.40
2023-06-11T18:45:54.662Z,27.40
2023-06-11T18:48:22.050Z,27.30
2023-06-11T18:50:50.085Z,27.20
2023-06-11T18:53:17.587Z,27.10
2023-06-11T18:55:44.878Z,27.00
2023-06-11T18:58:12.173Z,27.00
2023-06-11T19:00:39.399Z,26.90
2023-06-11T19:03:06.762Z,26.80
2023-06-11T19:05:34.242Z,26.80
2023-06-11T19:08:01.540Z,26.70
2023-06-11T19:10:28.847Z,26.60
2023-06-11T19:12:56.590Z,26.60
2023-06-11T19:15:24.048Z,26.50
2023-06-11T19:17:51.358Z,26.40
2023-06-11T19:20:18.644Z,26.40
2023-06-11T19:22:46.102Z,26.30
2023-06-11T19:25:13.479Z,26.20
2023-06-11T19:27:40.800Z,26.10
2023-06-11T19:30:08.589Z,26.10
2023-06-11T19:32:36.373Z,26.00
2023-06-11T19:35:04.191Z,25.90
2023-06-11T19:37:31.452Z,25.80
2023-06-11T19:39:59.524Z,25.70
2023-06-11T19:42:27.999Z,25.60
2023-06-11T19:44:56.714Z,25.40
2023-06-11T19:47:24.174Z,25.40
2023-06-11T19:49:51.546Z,25.30
2023-06-11T19:52:18.951Z,25.20
2023-06-11T19:54:51.710Z,25.00
2023-06-11T19:57:20.554Z,24.90
2023-06-11T19:59:49.808Z,24.80
2023-06-11T20:02:17.493Z,24.70
2023-06-11T20:04:45.022Z,24.60
2023-06-11T20:07:16.112Z,24.50
2023-06-11T20:09:43.349Z,24.40
2023-06-11T20:12:11.597Z,24.30
2023-06-11T20:14:39.141Z,24.20
2023-06-11T20:17:06.419Z,24.00
2023-06-11T20:19:36.744Z,23.90
2023-06-11T20:22:05.550Z,23.80
2023-06-11T20:24:33.275Z,23.60
2023-06-11T20:27:00.646Z,23.50
2023-06-11T20:29:27.881Z,23.30
2023-06-11T20:31:55.280Z,23.20
2023-06-11T20:34:22.610Z,23.10
2023-06-11T20:36:49.941Z,22.90
2023-06-11T20:39:17.264Z,22.80
2023-06-11T20:41:44.612Z,22.70
2023-06-11T20:44:11.848Z,22.60
2023-06-11T20:46:39.263Z,22.60
2023-06-11T20:49:07.185Z,22.50
2023-06-11T20:51:34.431Z,22.40
2023-06-11T20:54:01.921Z,22.40
2023-06-11T20:56:29.439Z,22.20
2023-06-11T20:58:56.815Z,22.10
2023-06-11T21:01:24.156Z,22.00
2023-06-11T21:03:51.642Z,21.90
2023-06-11T21:06:18.890Z,21.90
2023-06-11T21:08:46.254Z,21.90
2023-06-11T21:11:14.079Z,21.80
2023-06-11T21:13:41.331Z,21.70
2023-06-11T21:16:08.788Z,21.70
2023-06-11T21:18:36.294Z,21.70
2023-06-11T21:21:03.577Z,21.60
2023-06-11T21:23:30.968Z,21.60
2023-06-11T21:25:58.335Z,21.50
2023-06-11T21:28:25.656Z,21.50
2023-06-11T21:30:52.992Z,21.30
2023-06-11T21:33:20.510Z,21.20
2023-06-11T21:35:51.042Z,21.10
2023-06-11T21:38:19.004Z,21.00
2023-06-11T21:40:46.358Z,21.00
2023-06-11T21:43:13.669Z,20.80
2023-06-11T21:45:41.012Z,20.70
2023-06-11T21:48:08.492Z,20.60
2023-06-11T21:50:35.937Z,20.40
2023-06-11T21:53:03.283Z,20.40
2023-06-11T21:55:30.688Z,20.30
2023-06-11T21:57:59.200Z,20.30
2023-06-11T22:00:27.202Z,20.30
2023-06-11T22:02:54.781Z,20.40
2023-06-11T22:05:22.411Z,20.40
2023-06-11T22:07:49.908Z,20.40
2023-06-11T22:10:17.240Z,20.30
2023-06-11T22:12:46.462Z,20.30
2023-06-11T22:15:14.403Z,20.30
2023-06-11T22:17:42.266Z,20.30
2023-06-11T22:20:11.977Z,20.30
2023-06-11T22:22:44.369Z,20.20
2023-06-11T22:25:13.556Z,20.10
2023-06-11T22:27:43.116Z,20.10
2023-06-11T22:30:12.223Z,20.10
2023-06-11T22:32:40.004Z,20.10
2023-06-11T22:35:08.018Z,20.10
2023-06-11T22:37:36.959Z,20.10
2023-06-11T22:40:06.264Z,20.10
2023-06-11T22:42:34.225Z,20.00
2023-06-11T22:45:01.580Z,20.00
2023-06-11T22:47:33.942Z,19.90
2023-06-11T22:50:02.194Z,19.90
2023-06-11T22:52:33.459Z,19.90
2023-06-11T22:55:00.694Z,19.90
2023-06-11T22:57:27.780Z,19.80
2023-06-11T22:59:55.098Z,19.80
2023-06-11T23:02:22.328Z,19.70
2023-06-11T23:04:51.581Z,19.70
2023-06-11T23:07:19.082Z,19.70
2023-06-11T23:09:46.372Z,19.60
2023-06-11T23:12:13.724Z,19.60
2023-06-11T23:14:41.074Z,19.50
2023-06-11T23:17:10.836Z,19.50
2023-06-11T23:19:38.902Z,19.40
2023-06-11T23:22:08.606Z,19.40
2023-06-11T23:24:40.660Z,19.30
2023-06-11T23:27:08.772Z,19.30
2023-06-11T23:29:36.290Z,19.30
2023-06-11T23:32:04.431Z,19.30
2023-06-11T23:34:31.810Z,19.20
2023-06-11T23:37:00.886Z,19.20
2023-06-11T23:39:28.854Z,19.10
2023-06-11T23:41:56.545Z,19.00
2023-06-11T23:44:23.813Z,19.00
2023-06-11T23:46:51.141Z,18.90
2023-06-11T23:49:18.492Z,18.90
2023-06-11T23:51:46.374Z,18.90
2023-06-11T23:54:13.797Z,18.90
2023-06-11T23:56:41.060Z,18.90
2023-06-11T23:59:08.383Z,18.80
